SHT556 EICK-EGJJ
Flight info
| Callsign | SHT556 |
|---|---|
| Flight time | N/A |
| Altitude | 39000 |
| Route | ERTER1S ERTER DCT SKERY |
| Aircraft | B736/M-SDE2E3FGHIRWXY/LB1 |
Departure
| Time | 2026-04-28 18:26 |
|---|---|
| Airport | Cork International Airport (EICK) |
Arrival
| Time | N/A |
|---|---|
| Airport | Jersey Airport (EGJJ) |
| Time | Latitude | Longitude | Altitude | Speed | Heading |
|---|---|---|---|---|---|
| 2026-04-28 18:19 | 51.84797 | -8.49035 | 503 ft | 0 kts | 70° |
| 2026-04-28 18:19 | 51.84790 | -8.49062 | 504 ft | 3 kts | 69° |
| 2026-04-28 18:19 | 51.84783 | -8.49093 | 505 ft | 3 kts | 69° |
| 2026-04-28 18:20 | 51.84776 | -8.49123 | 504 ft | 3 kts | 68° |
| 2026-04-28 18:20 | 51.84768 | -8.49153 | 504 ft | 3 kts | 63° |
| 2026-04-28 18:20 | 51.84759 | -8.49176 | 504 ft | 2 kts | 46° |
| 2026-04-28 18:20 | 51.84749 | -8.49188 | 504 ft | 2 kts | 12° |
| 2026-04-28 18:21 | 51.84739 | -8.49189 | 504 ft | 1 kts | 349° |
| 2026-04-28 18:21 | 51.84731 | -8.49186 | 504 ft | 1 kts | 345° |
| 2026-04-28 18:21 | 51.84725 | -8.49183 | 503 ft | 0 kts | 343° |
| 2026-04-28 18:21 | 51.84726 | -8.49184 | 503 ft | 1 kts | 343° |
| 2026-04-28 18:22 | 51.84743 | -8.49192 | 503 ft | 4 kts | 343° |
| 2026-04-28 18:22 | 51.84784 | -8.49209 | 503 ft | 8 kts | 348° |
| 2026-04-28 18:22 | 51.84850 | -8.49235 | 503 ft | 11 kts | 345° |
| 2026-04-28 18:22 | 51.84938 | -8.49273 | 503 ft | 15 kts | 346° |
| 2026-04-28 18:23 | 51.85043 | -8.49327 | 503 ft | 17 kts | 338° |
| 2026-04-28 18:23 | 51.85142 | -8.49428 | 503 ft | 18 kts | 272° |
| 2026-04-28 18:23 | 51.85104 | -8.49499 | 503 ft | 1 kts | 209° |
| 2026-04-28 18:23 | 51.85080 | -8.49522 | 503 ft | 11 kts | 211° |
| 2026-04-28 18:24 | 51.84973 | -8.49600 | 503 ft | 19 kts | 183° |
| 2026-04-28 18:24 | 51.84934 | -8.49588 | 503 ft | 1 kts | 161° |
| 2026-04-28 18:24 | 51.84930 | -8.49587 | 503 ft | 0 kts | 161° |
| 2026-04-28 18:25 | 51.84705 | -8.49451 | 503 ft | 77 kts | 160° |
| 2026-04-28 18:25 | 51.83955 | -8.48998 | 506 ft | 150 kts | 158° |
| 2026-04-28 18:25 | 51.82873 | -8.48348 | 982 ft | 178 kts | 157° |
| 2026-04-28 18:26 | 51.80252 | -8.47036 | 2380 ft | 214 kts | 157° |
| 2026-04-28 18:26 | 51.78732 | -8.46259 | 2785 ft | 242 kts | 152° |
| 2026-04-28 18:26 | 51.77472 | -8.44404 | 3288 ft | 252 kts | 110° |
| 2026-04-28 18:26 | 51.77183 | -8.41680 | 4360 ft | 247 kts | 87° |
| 2026-04-28 18:27 | 51.77163 | -8.38930 | 5439 ft | 250 kts | 87° |
| 2026-04-28 18:27 | 51.77120 | -8.36128 | 6548 ft | 252 kts | 93° |
| 2026-04-28 18:27 | 51.76548 | -8.33409 | 7523 ft | 261 kts | 112° |
| 2026-04-28 18:27 | 51.75716 | -8.30780 | 8482 ft | 265 kts | 113° |
| 2026-04-28 18:28 | 51.74865 | -8.28112 | 9461 ft | 270 kts | 112° |
| 2026-04-28 18:28 | 51.74002 | -8.25401 | 10410 ft | 274 kts | 112° |
| 2026-04-28 18:28 | 51.73116 | -8.22593 | 10954 ft | 293 kts | 112° |
| 2026-04-28 18:28 | 51.72155 | -8.19514 | 11161 ft | 321 kts | 112° |
| 2026-04-28 18:29 | 51.71124 | -8.16212 | 11680 ft | 336 kts | 112° |
| 2026-04-28 18:29 | 51.70064 | -8.12825 | 12474 ft | 341 kts | 112° |
| 2026-04-28 18:29 | 51.68989 | -8.09395 | 13345 ft | 344 kts | 112° |
| 2026-04-28 18:29 | 51.67907 | -8.05938 | 14183 ft | 348 kts | 112° |
| 2026-04-28 18:30 | 51.66810 | -8.02431 | 14909 ft | 352 kts | 112° |
| 2026-04-28 18:30 | 51.66437 | -8.01238 | 15155 ft | 354 kts | 112° |
| 2026-04-28 18:30 | 51.64582 | -7.95306 | 16363 ft | 360 kts | 111° |
| 2026-04-28 18:30 | 51.63446 | -7.91677 | 17087 ft | 365 kts | 111° |
| 2026-04-28 18:31 | 51.62299 | -7.88014 | 17805 ft | 369 kts | 111° |
| 2026-04-28 18:31 | 51.61137 | -7.84308 | 18522 ft | 373 kts | 111° |
| 2026-04-28 18:31 | 51.59959 | -7.80557 | 19140 ft | 377 kts | 111° |
| 2026-04-28 18:31 | 51.58769 | -7.76775 | 19758 ft | 381 kts | 111° |
| 2026-04-28 18:32 | 51.57566 | -7.72956 | 20378 ft | 385 kts | 111° |
| 2026-04-28 18:32 | 51.56353 | -7.69113 | 21066 ft | 387 kts | 110° |
| 2026-04-28 18:32 | 51.55129 | -7.65244 | 21724 ft | 389 kts | 110° |
| 2026-04-28 18:32 | 51.53897 | -7.61350 | 22319 ft | 393 kts | 110° |
| 2026-04-28 18:33 | 51.52647 | -7.57405 | 22877 ft | 398 kts | 110° |
| 2026-04-28 18:33 | 51.51385 | -7.53426 | 23445 ft | 402 kts | 110° |
| 2026-04-28 18:33 | 51.50539 | -7.50765 | 23825 ft | 405 kts | 110° |
| 2026-04-28 18:33 | 51.49253 | -7.46725 | 24318 ft | 409 kts | 110° |
| 2026-04-28 18:34 | 51.47955 | -7.42657 | 24837 ft | 411 kts | 110° |
| 2026-04-28 18:34 | 51.46648 | -7.38569 | 25371 ft | 413 kts | 110° |
| 2026-04-28 18:34 | 51.45333 | -7.34464 | 25888 ft | 415 kts | 110° |
| 2026-04-28 18:34 | 51.44012 | -7.30344 | 26374 ft | 417 kts | 110° |
| 2026-04-28 18:35 | 51.42679 | -7.26193 | 26848 ft | 420 kts | 110° |
| 2026-04-28 18:35 | 51.41337 | -7.22020 | 27312 ft | 423 kts | 110° |
| 2026-04-28 18:35 | 51.39985 | -7.17824 | 27821 ft | 424 kts | 110° |
| 2026-04-28 18:35 | 51.38633 | -7.13640 | 28432 ft | 423 kts | 110° |
| 2026-04-28 18:36 | 51.37280 | -7.09457 | 28896 ft | 425 kts | 110° |
| 2026-04-28 18:36 | 51.35914 | -7.05237 | 29316 ft | 428 kts | 109° |
| 2026-04-28 18:36 | 51.34539 | -7.00993 | 29736 ft | 430 kts | 109° |
| 2026-04-28 18:36 | 51.33158 | -6.96741 | 30168 ft | 432 kts | 109° |
| 2026-04-28 18:37 | 51.31767 | -6.92466 | 30539 ft | 434 kts | 109° |
| 2026-04-28 18:37 | 51.30369 | -6.88178 | 30889 ft | 435 kts | 109° |
| 2026-04-28 18:37 | 51.28969 | -6.83899 | 31361 ft | 433 kts | 109° |
| 2026-04-28 18:37 | 51.27576 | -6.79651 | 31884 ft | 430 kts | 109° |
| 2026-04-28 18:38 | 51.26190 | -6.75432 | 32369 ft | 428 kts | 109° |
| 2026-04-28 18:38 | 51.24811 | -6.71233 | 32787 ft | 427 kts | 109° |
| 2026-04-28 18:38 | 51.23432 | -6.67040 | 33223 ft | 426 kts | 109° |
| 2026-04-28 18:38 | 51.22065 | -6.62901 | 33973 ft | 416 kts | 109° |
| 2026-04-28 18:39 | 51.20723 | -6.58845 | 34492 ft | 412 kts | 109° |
| 2026-04-28 18:39 | 51.19383 | -6.54784 | 34636 ft | 416 kts | 109° |
| 2026-04-28 18:39 | 51.18030 | -6.50677 | 34741 ft | 421 kts | 109° |
| 2026-04-28 18:39 | 51.16663 | -6.46542 | 34992 ft | 421 kts | 109° |
| 2026-04-28 18:40 | 51.15295 | -6.42418 | 35336 ft | 420 kts | 109° |
| 2026-04-28 18:40 | 51.13944 | -6.38359 | 35592 ft | 420 kts | 110° |
| 2026-04-28 18:40 | 51.12553 | -6.34184 | 35781 ft | 423 kts | 110° |
| 2026-04-28 18:40 | 51.11190 | -6.30097 | 35959 ft | 424 kts | 110° |
| 2026-04-28 18:41 | 51.09804 | -6.25950 | 36191 ft | 424 kts | 110° |
| 2026-04-28 18:41 | 51.08416 | -6.21806 | 36415 ft | 425 kts | 111° |
| 2026-04-28 18:41 | 51.07022 | -6.17648 | 36596 ft | 427 kts | 111° |
| 2026-04-28 18:41 | 51.05623 | -6.13484 | 36811 ft | 428 kts | 111° |
| 2026-04-28 18:42 | 51.04218 | -6.09310 | 36981 ft | 429 kts | 111° |
| 2026-04-28 18:42 | 51.02810 | -6.05132 | 37189 ft | 430 kts | 112° |
| 2026-04-28 18:42 | 51.01398 | -6.00953 | 37391 ft | 430 kts | 112° |